Time;durP1;ratioP1;P1;durP2;ratioP2;P2;SDS_P1;SDS_P2;PMS_P1;PMS_P2;Temp;Humidity;BMP_temperature;BMP_pressure;BME280_temperature;BME280_humidity;BME280_pressure;Samples;Min_cycle;Max_cycle;Signal;HPM_P1;HPM_P2
2022/08/26 00:00:58;;;;;;;21.83;3.67;;;;;;;21.72;51.49;95838.59;5113688;28;20104;-61
2022/08/26 00:03:26;;;;;;;34.70;5.25;;;;;;;21.74;50.31;95835.78;5113566;28;20109;-61
2022/08/26 00:05:53;;;;;;;27.95;4.10;;;;;;;21.73;49.87;95829.63;5113448;28;20098;-61
2022/08/26 00:08:21;;;;;;;25.92;4.32;;;;;;;21.66;49.64;95815.22;5113489;28;20576;-60
2022/08/26 00:10:49;;;;;;;22.13;4.18;;;;;;;21.63;48.93;95813.69;5113547;28;20083;-61
2022/08/26 00:13:17;;;;;;;33.90;4.80;;;;;;;21.58;50.72;95811.47;5113506;28;20054;-60
2022/08/26 00:15:46;;;;;;;34.80;5.05;;;;;;;21.51;49.98;95815.69;5113501;28;20101;-62
2022/08/26 00:18:14;;;;;;;24.65;4.40;;;;;;;21.40;48.97;95815.88;5113469;28;20100;-61
2022/08/26 00:20:41;;;;;;;27.00;5.28;;;;;;;21.39;48.77;95824.81;5113376;28;20047;-60
2022/08/26 00:23:08;;;;;;;31.90;5.10;;;;;;;21.40;50.62;95822.03;5113527;28;20458;-61
2022/08/26 00:25:36;;;;;;;22.52;4.05;;;;;;;21.33;51.93;95835.06;5117324;28;20484;-62
2022/08/26 00:28:04;;;;;;;31.75;5.07;;;;;;;21.23;51.36;95841.38;5117459;28;20484;-62
2022/08/26 00:30:33;;;;;;;36.33;4.82;;;;;;;21.17;50.70;95843.63;5117455;28;20127;-61
2022/08/26 00:33:02;;;;;;;28.95;4.65;;;;;;;21.16;52.05;95838.47;5117552;28;20122;-59
2022/08/26 00:35:29;;;;;;;29.67;4.40;;;;;;;21.10;53.26;95844.34;5117321;28;20046;-60
2022/08/26 00:37:57;;;;;;;23.10;4.78;;;;;;;21.02;52.72;95842.38;5117333;28;20040;-59
2022/08/26 00:40:27;;;;;;;28.88;4.50;;;;;;;20.93;52.91;95836.94;5117433;28;20485;-61
2022/08/26 00:42:55;;;;;;;27.45;4.43;;;;;;;20.81;52.63;95830.91;5117317;28;20051;-59
2022/08/26 00:45:22;;;;;;;29.15;4.22;;;;;;;20.70;52.38;95831.84;5117162;28;20048;-63
2022/08/26 00:47:53;;;;;;;28.15;4.07;;;;;;;20.60;53.06;95838.13;5117235;28;20051;-61
2022/08/26 00:50:23;;;;;;;;;;;;;;;20.52;52.52;95836.16;5117419;28;20063;-61
2022/08/26 00:52:52;;;;;;;36.65;5.47;;;;;;;20.41;51.29;95831.84;5117117;28;20676;-58
2022/08/26 00:55:22;;;;;;;25.45;3.70;;;;;;;20.42;52.55;95839.66;5116942;28;20138;-62
2022/08/26 00:57:50;;;;;;;28.95;5.63;;;;;;;20.38;52.91;95842.72;5116939;28;20067;-60
2022/08/26 01:00:21;;;;;;;29.60;4.60;;;;;;;20.39;52.94;95833.78;5116815;28;20047;-62
2022/08/26 01:02:49;;;;;;;27.58;4.00;;;;;;;20.33;53.02;95835.16;5116808;28;20443;-59
2022/08/26 01:05:18;;;;;;;36.55;4.50;;;;;;;20.33;51.94;95836.03;5116715;28;20047;-60
2022/08/26 01:07:47;;;;;;;25.70;3.78;;;;;;;20.32;49.05;95830.84;5116705;28;20508;-61
2022/08/26 01:10:18;;;;;;;20.67;4.55;;;;;;;20.38;50.66;95835.59;5116827;28;20079;-59
2022/08/26 01:12:50;;;;;;;17.85;4.35;;;;;;;20.42;49.58;95834.34;5116640;28;20052;-60
2022/08/26 01:15:22;;;;;;;27.55;3.65;;;;;;;20.43;49.79;95836.03;5116651;28;20044;-62
2022/08/26 01:17:49;;;;;;;19.05;3.35;;;;;;;20.42;50.12;95831.69;5116578;28;20533;-60
2022/08/26 01:20:28;;;;;;;19.35;3.53;;;;;;;20.46;49.69;95832.25;5116643;28;20044;-62
2022/08/26 01:23:00;;;;;;;26.17;4.90;;;;;;;20.51;50.33;95830.03;5116586;28;20104;-59
2022/08/26 01:25:30;;;;;;;27.27;4.10;;;;;;;20.43;49.14;95830.72;5116302;28;20048;-61
2022/08/26 01:28:04;;;;;;;28.70;4.68;;;;;;;20.44;50.86;95828.91;5116383;28;20048;-62
2022/08/26 01:30:32;;;;;;;18.67;3.83;;;;;;;20.47;50.81;95820.66;5116579;28;20100;-60
2022/08/26 01:33:03;;;;;;;18.90;3.58;;;;;;;20.51;52.31;95826.53;5116421;28;20093;-62
2022/08/26 01:35:32;;;;;;;19.30;3.72;;;;;;;20.43;52.19;95830.72;5115808;28;20506;-61
2022/08/26 01:38:01;;;;;;;18.83;3.85;;;;;;;20.27;51.01;95830.41;5116182;28;20040;-60
2022/08/26 01:40:31;;;;;;;21.35;3.25;;;;;;;20.28;50.94;95826.75;5116182;28;20086;-60
2022/08/26 01:43:01;;;;;;;25.50;3.83;;;;;;;20.28;51.86;95817.00;5116078;28;20481;-60
2022/08/26 01:45:32;;;;;;;18.88;3.50;;;;;;;20.30;53.76;95820.34;5115977;28;20105;-61
2022/08/26 01:48:03;;;;;;;28.33;3.83;;;;;;;20.23;52.14;95813.06;5116077;28;20442;-61
2022/08/26 01:50:33;;;;;;;24.23;3.65;;;;;;;20.20;53.99;95809.69;5116075;28;20428;-62
2022/08/26 01:53:07;;;;;;;23.85;3.40;;;;;;;20.10;53.86;95815.97;5115886;28;20465;-59
2022/08/26 01:55:38;;;;;;;32.47;5.65;;;;;;;19.94;51.88;95815.47;5115939;28;20044;-60
2022/08/26 01:58:07;;;;;;;;;;;;;;;19.95;51.74;95809.19;5116291;28;20043;-59
2022/08/26 02:00:35;;;;;;;24.95;3.72;;;;;;;19.81;51.78;95799.78;5115804;28;19919;-62
2022/08/26 02:03:16;;;;;;;25.65;3.95;;;;;;;19.92;52.74;95817.41;5115796;28;20481;-61
2022/08/26 02:05:45;;;;;;;21.27;3.50;;;;;;;19.93;52.69;95810.31;5115559;28;20063;-61
2022/08/26 02:08:16;;;;;;;19.90;3.92;;;;;;;19.99;55.75;95806.28;5115628;28;20071;-62
2022/08/26 02:10:43;;;;;;;23.55;3.90;;;;;;;19.95;55.85;95803.03;5115607;28;20050;-61
2022/08/26 02:13:11;;;;;;;22.33;3.60;;;;;;;19.91;55.09;95798.97;5115313;28;20075;-62
2022/08/26 02:15:42;;;;;;;22.33;3.25;;;;;;;19.86;53.52;95802.03;5115363;28;20048;-60
2022/08/26 02:18:11;;;;;;;21.80;3.33;;;;;;;19.93;52.84;95799.69;5115338;28;20101;-61
2022/08/26 02:20:38;;;;;;;22.42;3.50;;;;;;;19.96;52.29;95794.13;5115430;28;20043;-60
2022/08/26 02:23:06;;;;;;;19.13;3.75;;;;;;;19.98;52.17;95802.75;5115291;28;20397;-59
2022/08/26 02:25:43;;;;;;;27.35;3.83;;;;;;;20.05;51.52;95798.63;5115073;28;20048;-61
2022/08/26 02:28:11;;;;;;;21.33;3.42;;;;;;;20.16;51.06;95808.28;5115164;28;20051;-61
2022/08/26 02:30:40;;;;;;;21.30;3.05;;;;;;;20.26;50.90;95805.66;5115295;28;20096;-62
2022/08/26 02:33:07;;;;;;;11.45;3.15;;;;;;;20.35;50.29;95798.72;5115176;28;20134;-61
2022/08/26 02:35:37;;;;;;;24.10;3.42;;;;;;;20.41;50.83;95803.44;5115070;28;20043;-61
2022/08/26 02:38:06;;;;;;;40.90;4.43;;;;;;;20.48;52.02;95795.78;5115042;28;20044;-60
2022/08/26 02:40:39;;;;;;;22.80;3.40;;;;;;;20.51;52.39;95797.31;5114967;28;20065;-62
2022/08/26 02:43:07;;;;;;;21.38;3.10;;;;;;;20.53;52.78;95787.41;5114913;28;20477;-59
2022/08/26 02:45:34;;;;;;;12.18;3.25;;;;;;;20.51;50.60;95778.72;5114660;28;20051;-60
2022/08/26 02:48:10;;;;;;;21.45;2.72;;;;;;;20.58;51.81;95780.69;5114192;28;20039;-62
2022/08/26 02:50:38;;;;;;;17.70;3.55;;;;;;;20.74;50.44;95779.25;5114720;28;20439;-59
2022/08/26 02:53:05;;;;;;;22.05;3.58;;;;;;;20.87;49.98;95786.13;5114693;28;20043;-61
2022/08/26 02:55:34;;;;;;;19.70;3.92;;;;;;;20.96;49.30;95772.84;5114729;28;20151;-63
2022/08/26 02:58:01;;;;;;;20.42;3.70;;;;;;;21.05;50.59;95787.13;5114584;28;20123;-62
2022/08/26 03:00:30;;;;;;;21.02;3.72;;;;;;;21.11;50.47;95790.19;5114520;28;20047;-63
2022/08/26 03:02:57;;;;;;;16.80;3.15;;;;;;;21.13;50.59;95794.38;5114434;28;20069;-60
2022/08/26 03:05:25;;;;;;;12.85;2.90;;;;;;;21.16;50.49;95793.25;5114369;28;20051;-62
2022/08/26 03:07:52;;;;;;;14.10;3.13;;;;;;;21.16;50.09;95796.75;5114393;28;20047;-59
2022/08/26 03:10:20;;;;;;;25.88;4.28;;;;;;;21.19;49.58;95801.78;5114354;28;20413;-62
2022/08/26 03:12:49;;;;;;;23.45;3.90;;;;;;;21.27;49.33;95800.22;5114120;28;20479;-62
2022/08/26 03:15:17;;;;;;;21.63;3.00;;;;;;;21.29;49.00;95801.78;5114194;28;20052;-61
2022/08/26 03:17:46;;;;;;;19.42;3.05;;;;;;;21.32;49.09;95800.63;5114353;28;20094;-59
2022/08/26 03:20:14;;;;;;;16.88;3.05;;;;;;;21.37;48.29;95787.72;5114553;28;20051;-59
2022/08/26 03:22:41;;;;;;;19.17;4.05;;;;;;;21.39;48.15;95785.78;5114396;28;20457;-62
2022/08/26 03:25:11;;;;;;;20.83;3.90;;;;;;;21.48;48.08;95794.72;5114113;28;20400;-60
2022/08/26 03:27:38;;;;;;;18.57;3.00;;;;;;;21.56;47.30;95796.66;5114119;28;20086;-62
2022/08/26 03:33:03;;;;;;;25.25;3.35;;;;;;;21.63;47.13;95795.06;5077385;28;20420;-60
2022/08/26 03:35:30;;;;;;;21.45;3.25;;;;;;;21.64;47.36;95799.41;5114054;28;20051;-59
2022/08/26 03:37:58;;;;;;;28.63;3.85;;;;;;;21.70;47.23;95792.66;5113909;28;20489;-62
2022/08/26 03:40:25;;;;;;;17.83;3.15;;;;;;;21.72;46.77;95788.03;5113828;28;20101;-61
2022/08/26 03:42:52;;;;;;;24.75;3.90;;;;;;;21.71;46.72;95794.34;5113926;28;20466;-61
2022/08/26 03:45:21;;;;;;;26.65;3.58;;;;;;;21.71;46.36;95789.84;5113633;28;20047;-60
2022/08/26 03:47:48;;;;;;;26.73;4.35;;;;;;;21.71;46.90;95794.34;5113829;28;20048;-60
2022/08/26 03:50:19;;;;;;;20.27;4.00;;;;;;;21.70;46.54;95787.34;5113808;28;20492;-61
2022/08/26 03:52:47;;;;;;;18.92;3.88;;;;;;;21.71;47.69;95797.84;5113831;28;20087;-62
2022/08/26 03:55:15;;;;;;;18.88;3.50;;;;;;;21.70;46.78;95788.19;5113656;28;20058;-63
2022/08/26 03:57:43;;;;;;;20.80;3.28;;;;;;;21.72;47.30;95796.03;5113613;28;20146;-61
2022/08/26 04:00:14;;;;;;;32.70;4.07;;;;;;;21.73;46.98;95796.88;5113616;28;20048;-61
2022/08/26 04:02:44;;;;;;;18.05;3.67;;;;;;;21.76;48.33;95792.09;5113768;28;20075;-61
2022/08/26 04:05:13;;;;;;;22.85;3.78;;;;;;;21.77;47.97;95796.47;5113459;28;20382;-61
2022/08/26 04:07:41;;;;;;;27.17;3.50;;;;;;;21.75;47.35;95798.41;5113579;28;20481;-63
2022/08/26 04:10:09;;;;;;;18.50;3.28;;;;;;;21.77;48.60;95803.59;5113549;28;20378;-63
2022/08/26 04:12:38;;;;;;;29.17;3.72;;;;;;;21.75;47.75;95810.84;5113134;28;20097;-61
2022/08/26 04:15:07;;;;;;;26.90;3.90;;;;;;;21.74;47.96;95802.03;5113401;28;20047;-61
2022/08/26 04:17:34;;;;;;;24.67;3.72;;;;;;;21.77;46.22;95806.25;5113559;28;20077;-59
2022/08/26 04:20:04;;;;;;;17.23;3.50;;;;;;;21.81;46.82;95804.97;5113412;28;20048;-60
2022/08/26 04:22:31;;;;;;;23.60;4.07;;;;;;;21.90;45.13;95806.75;5113438;28;20439;-59
2022/08/26 04:24:58;;;;;;;30.77;3.13;;;;;;;21.99;45.81;95810.34;5113306;28;20055;-59
2022/08/26 04:27:25;;;;;;;18.67;3.47;;;;;;;22.06;45.35;95824.75;5113210;28;20134;-62
2022/08/26 04:29:53;;;;;;;22.38;3.35;;;;;;;22.11;46.56;95816.31;5113226;28;20135;-62
2022/08/26 04:32:20;;;;;;;24.40;3.90;;;;;;;22.15;47.26;95824.88;5113536;28;20050;-60
2022/08/26 04:34:47;;;;;;;20.52;3.30;;;;;;;22.12;46.10;95823.31;5113225;28;20050;-60
2022/08/26 04:37:16;;;;;;;17.65;3.63;;;;;;;22.11;45.43;95829.63;5113381;28;20477;-61
2022/08/26 04:39:43;;;;;;;20.50;3.25;;;;;;;22.21;46.20;95830.44;5113215;28;20047;-59
2022/08/26 04:42:12;;;;;;;30.73;3.55;;;;;;;22.24;45.39;95823.13;5113223;28;20044;-62
2022/08/26 04:44:39;;;;;;;18.33;3.60;;;;;;;22.28;46.54;95828.00;5113187;28;20093;-62
2022/08/26 04:47:07;;;;;;;21.85;4.20;;;;;;;22.28;45.32;95827.16;5113191;28;20047;-60
2022/08/26 04:49:34;;;;;;;29.88;3.55;;;;;;;22.30;45.91;95830.50;5113165;28;20439;-62
2022/08/26 04:52:01;;;;;;;20.00;3.72;;;;;;;22.26;46.25;95839.78;5113114;28;20044;-63
2022/08/26 04:54:30;;;;;;;23.00;3.53;;;;;;;22.27;45.99;95846.81;5113206;28;20097;-63
2022/08/26 04:56:57;;;;;;;14.43;3.45;;;;;;;22.24;45.91;95839.94;5113099;28;20420;-60
2022/08/26 04:59:24;;;;;;;28.50;3.75;;;;;;;22.29;46.75;95843.00;5113240;28;20083;-61
2022/08/26 05:01:55;;;;;;;14.18;3.47;;;;;;;22.32;46.41;95844.53;5113173;28;20039;-62
2022/08/26 05:04:21;;;;;;;;;;;;;;;22.38;49.03;95843.94;5113693;28;20040;-59
2022/08/26 05:06:49;;;;;;;24.40;4.40;;;;;;;22.38;49.25;95848.41;5112991;28;19920;-60
2022/08/26 05:09:18;;;;;;;16.65;3.20;;;;;;;22.30;49.82;95847.34;5113165;28;20098;-61
2022/08/26 05:11:47;;;;;;;15.90;3.08;;;;;;;22.30;50.71;95857.13;5116812;28;20051;-60
2022/08/26 05:14:14;;;;;;;26.98;3.60;;;;;;;22.31;51.19;95857.00;5116542;28;20052;-61
2022/08/26 05:16:42;;;;;;;25.48;3.85;;;;;;;22.30;52.24;95859.78;5116552;28;20073;-63
2022/08/26 05:19:10;;;;;;;29.20;3.67;;;;;;;22.32;55.91;95865.81;5116600;28;20058;-59
2022/08/26 05:21:38;;;;;;;16.92;4.03;;;;;;;22.24;56.19;95858.56;5116572;28;20126;-60
2022/08/26 05:24:06;;;;;;;33.83;4.13;;;;;;;22.16;58.82;95853.16;5116427;28;20386;-63
2022/08/26 05:26:33;;;;;;;33.28;4.55;;;;;;;22.00;59.99;95859.13;5116290;28;20043;-60
2022/08/26 05:29:02;;;;;;;20.50;4.38;;;;;;;21.90;58.11;95864.47;5116307;28;20560;-59
2022/08/26 05:31:31;;;;;;;26.48;3.92;;;;;;;21.80;60.42;95862.72;5116223;28;20494;-63
2022/08/26 05:33:59;;;;;;;31.15;4.10;;;;;;;21.74;57.81;95871.22;5116287;28;20043;-61
2022/08/26 05:36:29;;;;;;;23.13;4.60;;;;;;;21.65;57.29;95867.63;5116370;28;20043;-60
2022/08/26 05:38:57;;;;;;;20.63;3.40;;;;;;;21.53;56.13;95880.25;5116258;28;20079;-61
2022/08/26 05:41:27;;;;;;;31.02;3.85;;;;;;;21.45;55.09;95878.31;5116177;28;20052;-62
2022/08/26 05:43:56;;;;;;;34.35;3.60;;;;;;;21.30;53.91;95887.69;5116250;28;20044;-60
2022/08/26 05:46:26;;;;;;;23.55;4.22;;;;;;;21.27;54.56;95894.13;5116083;28;20050;-60
2022/08/26 05:48:54;;;;;;;24.55;4.00;;;;;;;21.19;54.23;95884.19;5116099;28;20101;-62
2022/08/26 05:51:22;;;;;;;21.80;3.97;;;;;;;21.24;55.54;95882.94;5116005;28;20470;-61
2022/08/26 05:53:49;;;;;;;16.50;3.55;;;;;;;21.29;55.45;95883.34;5115890;28;20059;-62
2022/08/26 05:56:18;;;;;;;20.88;4.22;;;;;;;21.31;56.67;95876.91;5115747;28;20427;-59
2022/08/26 05:58:46;;;;;;;26.95;4.57;;;;;;;21.31;56.56;95881.41;5115908;28;20044;-62
2022/08/26 06:01:16;;;;;;;33.65;4.55;;;;;;;21.28;56.72;95887.81;5115659;28;20050;-60
2022/08/26 06:03:46;;;;;;;28.60;3.72;;;;;;;21.28;56.73;95887.81;5115616;28;20043;-59
2022/08/26 06:06:15;;;;;;;;;;;;;;;21.37;56.12;95882.66;5115924;28;20496;-62
2022/08/26 06:08:43;;;;;;;16.52;3.83;;;;;;;21.39;55.91;95891.31;5115735;28;19919;-60
2022/08/26 06:11:13;;;;;;;19.98;3.45;;;;;;;21.45;56.04;95890.75;5115554;28;20051;-59
2022/08/26 06:13:41;;;;;;;19.92;3.58;;;;;;;21.54;54.97;95892.56;5115181;28;20384;-60
2022/08/26 06:16:11;;;;;;;21.55;3.22;;;;;;;21.69;53.22;95886.78;5115568;28;20051;-59
2022/08/26 06:18:41;;;;;;;23.80;3.80;;;;;;;21.87;53.28;95897.56;5115472;28;20047;-59
2022/08/26 06:21:19;;;;;;;19.10;3.55;;;;;;;21.99;54.64;95903.53;5115478;28;20127;-61
2022/08/26 06:26:33;;;;;;;18.80;3.70;;;;;;;22.44;54.36;95899.28;5115350;28;20054;-62
2022/08/26 06:29:00;;;;;;;19.55;3.50;;;;;;;22.69;53.73;95902.25;5115311;28;20058;-62
2022/08/26 06:31:28;;;;;;;14.50;4.07;;;;;;;22.93;54.70;95898.16;5115340;28;20077;-60
2022/08/26 06:33:57;;;;;;;25.10;3.50;;;;;;;23.13;56.21;95906.00;5115135;28;20043;-62
2022/08/26 06:36:27;;;;;;;31.15;4.15;;;;;;;23.30;52.83;95908.81;5115175;28;20116;-62
2022/08/26 06:38:56;;;;;;;20.45;3.45;;;;;;;23.46;52.23;95906.31;5115111;28;20039;-60
2022/08/26 06:41:24;;;;;;;22.10;4.32;;;;;;;23.61;50.58;95911.09;5115086;28;20059;-60
2022/08/26 06:43:52;;;;;;;30.95;4.53;;;;;;;23.67;49.12;95909.63;5115005;28;20093;-62
2022/08/26 06:46:21;;;;;;;30.42;4.00;;;;;;;23.80;58.11;95920.72;5114756;28;20047;-61
2022/08/26 06:48:48;;;;;;;33.95;4.65;;;;;;;23.95;52.03;95907.63;5114745;28;20051;-61
2022/08/26 06:51:17;;;;;;;22.25;4.35;;;;;;;24.25;54.75;95917.16;5114678;28;20043;-59
2022/08/26 06:53:49;;;;;;;21.02;4.05;;;;;;;24.50;54.64;95910.06;5114723;28;20044;-62
2022/08/26 06:56:20;;;;;;;14.38;3.28;;;;;;;24.63;50.93;95917.66;5114618;28;20416;-61
2022/08/26 06:58:47;;;;;;;18.80;3.65;;;;;;;24.72;48.77;95908.63;5114616;28;20068;-61
2022/08/26 07:01:17;;;;;;;21.42;3.90;;;;;;;24.81;47.78;95909.53;5114541;28;20040;-59
2022/08/26 07:03:44;;;;;;;25.48;4.00;;;;;;;25.02;48.60;95918.97;5114618;28;20047;-62
2022/08/26 07:06:11;;;;;;;24.25;3.53;;;;;;;25.28;50.17;95925.19;5114487;28;20050;-60
2022/08/26 07:08:39;;;;;;;23.08;3.80;;;;;;;25.45;51.85;95937.56;5114430;28;20089;-60
2022/08/26 07:11:09;;;;;;;29.52;4.07;;;;;;;25.50;50.18;95934.38;5114511;28;20240;-61
2022/08/26 07:13:36;;;;;;;16.77;3.20;;;;;;;25.67;48.47;95937.91;5114186;28;20083;-59
2022/08/26 07:16:05;;;;;;;24.52;4.03;;;;;;;25.86;51.12;95939.38;5114390;28;20043;-61
2022/08/26 07:18:51;;;;;;;13.02;3.70;;;;;;;26.02;49.84;95947.56;5114372;28;20104;-58
2022/08/26 07:21:20;;;;;;;19.75;4.75;;;;;;;26.08;48.72;95958.47;5114238;28;20092;-61
2022/08/26 07:23:48;;;;;;;25.27;4.82;;;;;;;26.20;49.63;95950.03;5114087;28;20044;-60
2022/08/26 07:26:18;;;;;;;23.00;3.80;;;;;;;26.36;49.99;95954.56;5114003;28;20040;-59
2022/08/26 07:28:47;;;;;;;22.63;4.18;;;;;;;26.49;46.74;95952.16;5114136;28;20556;-61
2022/08/26 07:31:16;;;;;;;19.27;4.10;;;;;;;26.60;48.79;95952.78;5113986;28;20053;-62
2022/08/26 07:33:44;;;;;;;28.00;3.88;;;;;;;26.53;42.79;95957.19;5113587;28;20044;-60
2022/08/26 07:36:13;;;;;;;13.32;3.42;;;;;;;26.62;49.64;95956.13;5113976;28;20055;-63
2022/08/26 07:38:43;;;;;;;13.95;3.70;;;;;;;26.77;43.08;95953.56;5113920;28;20440;-59
2022/08/26 07:41:12;;;;;;;26.55;3.80;;;;;;;26.87;41.83;95956.00;5113873;28;20104;-61
2022/08/26 07:43:41;;;;;;;16.98;3.42;;;;;;;26.96;41.47;95946.06;5114000;28;20055;-60
2022/08/26 07:46:09;;;;;;;22.40;4.25;;;;;;;27.05;40.36;95946.91;5113787;28;20048;-60
2022/08/26 07:48:36;;;;;;;26.08;4.18;;;;;;;26.87;39.66;95956.88;5113835;28;20043;-59
2022/08/26 07:51:04;;;;;;;22.92;4.00;;;;;;;26.98;38.99;95961.03;5113746;28;20097;-61
2022/08/26 07:53:32;;;;;;;25.42;3.53;;;;;;;27.03;36.63;95951.63;5113777;28;20108;-59
2022/08/26 07:55:59;;;;;;;22.92;4.00;;;;;;;26.89;37.01;95959.38;5113757;28;20485;-59
2022/08/26 07:58:28;;;;;;;21.52;3.60;;;;;;;26.97;40.22;95964.69;5113738;28;20044;-61
2022/08/26 08:00:57;;;;;;;28.23;4.30;;;;;;;27.00;38.84;95961.69;5113717;28;20393;-61
2022/08/26 08:03:24;;;;;;;22.98;4.28;;;;;;;26.93;38.85;95962.53;5113671;28;20501;-60
2022/08/26 08:05:52;;;;;;;22.63;4.10;;;;;;;26.79;40.83;95970.28;5113540;28;20048;-60
2022/08/26 08:08:19;;;;;;;15.75;3.33;;;;;;;26.78;39.24;95971.31;5113814;28;20098;-61
2022/08/26 08:10:46;;;;;;;21.50;4.43;;;;;;;26.70;40.17;95971.38;5113499;28;20122;-62
2022/08/26 08:13:14;;;;;;;21.08;4.43;;;;;;;26.66;39.71;95978.91;5113260;28;20044;-63
2022/08/26 08:15:42;;;;;;;22.20;3.88;;;;;;;26.77;39.09;95976.84;5113561;28;20075;-62
2022/08/26 08:18:11;;;;;;;17.58;3.85;;;;;;;26.87;38.17;95966.75;5113562;28;20096;-60
2022/08/26 08:20:39;;;;;;;20.67;3.92;;;;;;;26.96;40.63;95973.75;5113525;28;20050;-62
2022/08/26 08:23:06;;;;;;;18.52;3.88;;;;;;;27.04;39.46;95958.66;5113498;28;20143;-62
2022/08/26 08:25:34;;;;;;;22.23;3.50;;;;;;;27.00;36.67;95969.72;5113432;28;20131;-61
2022/08/26 08:28:01;;;;;;;18.30;3.42;;;;;;;27.17;37.93;95975.00;5113204;28;20047;-62
2022/08/26 08:30:28;;;;;;;13.05;3.08;;;;;;;27.13;37.96;95971.00;5113226;28;20546;-61
2022/08/26 08:32:56;;;;;;;19.13;3.88;;;;;;;26.64;38.04;95974.75;5113263;28;20556;-60
2022/08/26 08:35:25;;;;;;;14.98;3.70;;;;;;;26.24;38.19;95972.81;5113446;28;20089;-61
2022/08/26 08:37:55;;;;;;;15.85;3.30;;;;;;;25.87;39.19;95969.69;5113256;28;20048;-60
2022/08/26 08:40:24;;;;;;;13.97;3.93;;;;;;;25.73;39.77;95965.84;5113370;28;20047;-62
2022/08/26 08:42:58;;;;;;;21.52;3.38;;;;;;;25.77;39.99;95974.41;5113295;28;20044;-60
2022/08/26 08:45:33;;;;;;;29.83;4.80;;;;;;;25.78;39.42;95973.38;5115327;28;20055;-61
2022/08/26 08:48:04;;;;;;;14.32;3.33;;;;;;;25.94;41.26;95976.03;5117130;28;20058;-59
2022/08/26 08:50:35;;;;;;;31.00;4.38;;;;;;;25.81;39.64;95975.72;5117000;28;20079;-63
2022/08/26 08:53:10;;;;;;;19.23;3.75;;;;;;;25.85;40.51;95979.72;5117133;28;20047;-60
2022/08/26 08:55:54;;;;;;;16.25;3.47;;;;;;;25.83;40.26;95979.91;5117110;28;20047;-63
2022/08/26 08:58:27;;;;;;;22.10;3.40;;;;;;;25.52;40.73;95980.53;5116955;28;20047;-60
2022/08/26 09:00:59;;;;;;;23.85;3.95;;;;;;;25.67;43.55;95975.38;5116962;28;20051;-61
2022/08/26 09:03:41;;;;;;;22.52;3.97;;;;;;;25.82;43.33;95983.59;5117160;28;20047;-61
2022/08/26 09:06:16;;;;;;;21.92;4.68;;;;;;;25.82;42.94;95986.25;5116891;28;20052;-62
2022/08/26 09:08:45;;;;;;;19.30;4.20;;;;;;;25.92;43.27;95988.78;5116814;28;20128;-63
2022/08/26 09:11:14;;;;;;;25.42;4.00;;;;;;;25.94;44.24;95980.56;5116733;28;20043;-60
2022/08/26 09:13:46;;;;;;;17.80;3.78;;;;;;;25.87;43.04;95988.44;5116472;28;20047;-60
2022/08/26 09:16:18;;;;;;;15.80;4.65;;;;;;;25.55;42.29;95985.56;5116667;28;20565;-59
2022/08/26 09:19:02;;;;;;;28.27;4.75;;;;;;;25.49;44.14;96003.13;5116725;28;20122;-60
2022/08/26 09:21:31;;;;;;;19.45;3.78;;;;;;;25.36;43.73;96005.44;5116628;28;20044;-59
2022/08/26 09:23:59;;;;;;;22.67;3.95;;;;;;;25.41;44.65;95992.44;5116579;28;20050;-61
2022/08/26 09:26:29;;;;;;;19.02;4.63;;;;;;;25.40;45.44;95996.09;5116365;28;20097;-60
2022/08/26 09:28:58;;;;;;;29.30;4.43;;;;;;;25.42;45.61;96001.28;5116360;28;20058;-63
2022/08/26 09:31:28;;;;;;;28.90;4.87;;;;;;;25.38;47.20;96010.63;5116349;28;20047;-63
2022/08/26 09:34:11;;;;;;;18.77;4.68;;;;;;;25.38;47.64;96013.31;5116282;28;20097;-61
2022/08/26 09:36:42;;;;;;;19.02;4.65;;;;;;;25.28;48.11;96006.25;5116355;28;20400;-62
2022/08/26 09:39:32;;;;;;;24.83;5.25;;;;;;;25.11;46.91;96000.06;5116330;28;20040;-62
2022/08/26 09:42:07;;;;;;;25.05;4.22;;;;;;;25.00;47.85;95993.16;5116161;28;20055;-61
2022/08/26 09:44:35;;;;;;;28.08;4.75;;;;;;;25.19;49.01;95989.38;5116152;28;20043;-63
2022/08/26 09:47:06;;;;;;;21.70;3.83;;;;;;;25.17;46.19;95988.72;5115934;28;20052;-63
2022/08/26 09:49:35;;;;;;;12.35;4.22;;;;;;;24.99;47.88;95999.53;5116052;28;20047;-62
2022/08/26 09:52:19;;;;;;;25.75;4.63;;;;;;;24.96;49.04;95995.31;5115888;28;20048;-62
2022/08/26 09:55:01;;;;;;;28.48;4.72;;;;;;;25.02;49.92;95996.53;5116131;28;20043;-62
2022/08/26 09:57:30;;;;;;;23.40;4.63;;;;;;;24.84;46.61;95989.41;5115570;28;20132;-62
2022/08/26 09:59:59;;;;;;;25.38;4.68;;;;;;;24.76;47.80;95984.03;5115930;28;20168;-63
2022/08/26 10:02:40;;;;;;;16.05;3.85;;;;;;;24.66;48.78;95981.50;5115765;28;20043;-59
2022/08/26 10:05:10;;;;;;;;;;;;;;;24.81;50.43;95981.72;5116093;28;20504;-59
2022/08/26 10:07:45;;;;;;;17.15;3.80;;;;;;;24.95;51.06;95982.13;5115692;28;20388;-60
2022/08/26 10:10:18;;;;;;;23.77;4.70;;;;;;;25.14;49.52;95983.69;5115518;28;20047;-60
2022/08/26 10:12:59;;;;;;;15.30;4.18;;;;;;;25.29;47.79;95975.84;5115399;28;20051;-62
2022/08/26 10:15:28;;;;;;;27.52;4.45;;;;;;;25.40;46.33;95966.66;5115658;28;20225;-61
2022/08/26 10:18:04;;;;;;;17.23;4.47;;;;;;;25.48;45.25;95958.63;5115477;28;20043;-59
2022/08/26 10:20:37;;;;;;;18.17;4.70;;;;;;;25.55;47.60;95952.63;5115373;28;20047;-63
2022/08/26 10:23:11;;;;;;;14.13;4.22;;;;;;;25.66;45.92;95952.31;5115300;28;20085;-60
2022/08/26 10:25:46;;;;;;;20.77;4.50;;;;;;;25.78;48.39;95946.59;5115250;28;20069;-62
2022/08/26 10:28:22;;;;;;;14.82;4.75;;;;;;;25.81;45.59;95940.91;5115249;28;20056;-63
2022/08/26 10:30:57;;;;;;;18.77;4.47;;;;;;;25.86;44.41;95943.94;5115193;28;20078;-60
2022/08/26 10:33:25;;;;;;;15.63;3.90;;;;;;;25.94;44.44;95941.22;5115231;28;20039;-62
2022/08/26 10:35:55;;;;;;;21.60;4.65;;;;;;;25.99;43.27;95930.00;5115148;28;20044;-62
2022/08/26 10:38:29;;;;;;;17.52;4.22;;;;;;;26.04;42.15;95927.66;5115049;28;20083;-61
2022/08/26 10:41:02;;;;;;;27.00;5.10;;;;;;;26.05;40.95;95931.16;5114984;28;20059;-62
2022/08/26 10:43:35;;;;;;;25.08;4.38;;;;;;;26.07;42.81;95919.25;5114899;28;20055;-61
2022/08/26 10:46:08;;;;;;;26.85;5.43;;;;;;;25.97;41.99;95923.97;5114887;28;20050;-63
2022/08/26 10:48:44;;;;;;;20.08;4.28;;;;;;;25.96;39.62;95927.66;5114840;28;20051;-60
2022/08/26 10:51:13;;;;;;;20.50;4.80;;;;;;;25.84;43.48;95929.84;5114806;28;20039;-62
2022/08/26 10:53:49;;;;;;;27.70;5.80;;;;;;;25.81;42.51;95917.66;5114781;28;20062;-61
2022/08/26 10:56:30;;;;;;;35.40;4.95;;;;;;;25.86;44.38;95925.19;5114687;28;20047;-62
2022/08/26 10:59:06;;;;;;;21.67;4.07;;;;;;;25.91;46.87;95922.00;5114674;28;20096;-62
2022/08/26 11:01:44;;;;;;;26.05;5.22;;;;;;;25.97;46.54;95923.97;5114764;28;20044;-59
2022/08/26 11:04:29;;;;;;;23.70;4.70;;;;;;;25.83;44.17;95923.66;5114598;28;20047;-60
2022/08/26 11:07:31;;;;;;;17.08;4.53;;;;;;;25.79;48.78;95926.88;5114205;28;20082;-61
2022/08/26 11:10:01;;;;;;;22.50;3.95;;;;;;;25.68;45.72;95930.72;5114535;28;20047;-60
2022/08/26 11:12:53;;;;;;;17.48;4.15;;;;;;;25.65;50.96;95931.91;5114252;28;20514;-61
2022/08/26 11:16:09;;;;;;;11.45;3.83;;;;;;;25.25;45.82;95937.03;5113962;28;20052;-62
2022/08/26 11:18:47;;;;;;;20.65;4.18;;;;;;;24.92;47.22;95942.34;5114366;28;20048;-59
2022/08/26 11:21:49;;;;;;;26.02;4.70;;;;;;;24.70;47.36;95944.56;5114403;28;20047;-59
2022/08/26 11:25:02;;;;;;;22.27;5.35;;;;;;;24.48;48.09;95944.16;5114185;28;20100;-61
2022/08/26 11:41:07;;;;;;;19.30;4.60;;;;;;;24.58;51.66;95938.69;5131631;27;20383;-60
2022/08/26 11:43:36;;;;;;;23.75;4.22;;;;;;;24.53;49.77;95941.81;5131351;27;20050;-59
2022/08/26 11:46:05;;;;;;;30.45;4.38;;;;;;;24.54;53.86;95938.19;5131477;27;20043;-60
2022/08/26 11:48:35;;;;;;;25.02;5.03;;;;;;;24.55;53.94;95939.00;5131286;27;20135;-61
2022/08/26 11:51:05;;;;;;;15.45;4.55;;;;;;;24.43;52.73;95941.13;5131202;27;20108;-61
2022/08/26 11:53:35;;;;;;;22.80;5.20;;;;;;;24.42;53.66;95937.63;5131349;28;20079;-61
2022/08/26 11:56:09;;;;;;;21.50;5.07;;;;;;;24.32;51.16;95937.72;5131194;27;20292;-59
2022/08/26 11:58:41;;;;;;;21.45;4.72;;;;;;;24.39;53.15;95929.94;5131030;28;20084;-60
2022/08/26 12:01:10;;;;;;;17.73;4.45;;;;;;;24.43;51.96;95930.44;5131082;27;20114;-61